Time,TemperatureF,DewpointF,PressureIn,WindDirection,WindDirectionDegrees,WindSpeedMPH,WindSpeedGustMPH,Humidity,HourlyPrecipIn,Conditions,Clouds,dailyrainin,SoftwareType,DateUTC
2013-03-16 00:26:00,54.8,52.0,30.15,South,173,0.0,-999.0,89,-99.99,,,0.00,weatherlink.com 1.10,2013-03-16 05:26:00,
2013-03-16 00:41:00,54.6,52.0,30.14,South,173,0.0,-999.0,89,-99.99,,,0.00,weatherlink.com 1.10,2013-03-16 05:41:00,
2013-03-16 00:56:00,54.5,52.0,30.14,South,172,0.0,-999.0,90,-99.99,,,0.00,weatherlink.com 1.10,2013-03-16 05:56:00,
2013-03-16 01:11:00,54.4,52.0,30.14,South,173,0.0,-999.0,90,-99.99,,,0.00,weatherlink.com 1.10,2013-03-16 06:11:00,
2013-03-16 01:26:00,53.8,51.0,30.13,South,173,0.0,-999.0,90,-99.99,,,0.00,weatherlink.com 1.10,2013-03-16 06:26:00,
2013-03-16 01:41:00,53.2,50.0,30.12,South,172,0.0,-999.0,90,-99.99,,,0.00,weatherlink.com 1.10,2013-03-16 06:41:00,
2013-03-16 01:56:00,52.6,50.0,30.11,South,173,0.0,-999.0,90,-99.99,,,0.00,weatherlink.com 1.10,2013-03-16 06:56:00,
2013-03-16 02:11:00,52.2,49.0,30.11,South,174,0.0,-999.0,90,-99.99,,,0.00,weatherlink.com 1.10,2013-03-16 07:11:00,
2013-03-16 02:26:00,51.9,49.0,30.10,South,172,0.0,-999.0,91,-99.99,,,0.00,weatherlink.com 1.10,2013-03-16 07:26:00,
2013-03-16 02:41:00,51.7,49.0,30.09,South,173,0.0,-999.0,91,-99.99,,,0.00,weatherlink.com 1.10,2013-03-16 07:41:00,
2013-03-16 02:56:00,52.7,51.0,30.08,South,172,0.0,-999.0,93,-99.99,,,0.00,weatherlink.com 1.10,2013-03-16 07:56:00,
2013-03-16 03:11:00,53.3,51.0,30.07,South,172,0.0,-999.0,93,-99.99,,,0.00,weatherlink.com 1.10,2013-03-16 08:11:00,
2013-03-16 03:26:00,53.5,52.0,30.07,South,171,0.0,-999.0,93,-99.99,,,0.00,weatherlink.com 1.10,2013-03-16 08:26:00,
2013-03-16 03:41:00,53.3,51.0,30.07,South,173,0.0,-999.0,93,-99.99,,,0.00,weatherlink.com 1.10,2013-03-16 08:41:00,
2013-03-16 03:56:00,53.1,51.0,30.07,South,175,0.0,-999.0,93,-99.99,,,0.00,weatherlink.com 1.10,2013-03-16 08:56:00,
2013-03-16 04:11:00,52.9,51.0,30.07,South,174,0.0,-999.0,92,-99.99,,,0.00,weatherlink.com 1.10,2013-03-16 09:11:00,
2013-03-16 04:26:00,52.6,51.0,30.06,South,174,0.0,-999.0,93,-99.99,,,0.00,weatherlink.com 1.10,2013-03-16 09:26:00,
2013-03-16 04:41:00,52.7,51.0,30.06,South,174,0.0,-999.0,93,-99.99,,,0.00,weatherlink.com 1.10,2013-03-16 09:41:00,
2013-03-16 04:56:00,53.3,51.0,30.06,South,173,0.0,-999.0,93,-99.99,,,0.00,weatherlink.com 1.10,2013-03-16 09:56:00,
2013-03-16 05:11:00,53.5,52.0,30.06,South,174,0.0,-999.0,93,-99.99,,,0.00,weatherlink.com 1.10,2013-03-16 10:11:00,
2013-03-16 05:26:00,53.6,52.0,30.06,South,174,0.0,-999.0,93,-99.99,,,0.00,weatherlink.com 1.10,2013-03-16 10:26:00,
2013-03-16 05:41:00,53.7,52.0,30.06,South,175,1.0,-999.0,93,-99.99,,,0.00,weatherlink.com 1.10,2013-03-16 10:41:00,
2013-03-16 07:55:00,51.3,49.0,30.09,South,175,0.0,-999.0,93,-99.99,,,0.00,weatherlink.com 1.10,2013-03-16 12:55:00,
2013-03-16 08:26:00,57.1,55.0,30.09,South,173,0.0,-999.0,94,-99.99,,,0.00,weatherlink.com 1.10,2013-03-16 13:26:00,
2013-03-16 08:41:00,59.4,58.0,30.09,South,181,2.0,-999.0,94,-99.99,,,0.00,weatherlink.com 1.10,2013-03-16 13:41:00,
2013-03-16 08:56:00,61.1,59.0,30.09,South,182,0.0,-999.0,93,-99.99,,,0.00,weatherlink.com 1.10,2013-03-16 13:56:00,
2013-03-16 09:11:00,63.5,60.0,30.09,South,180,0.0,-999.0,89,-99.99,,,0.00,weatherlink.com 1.10,2013-03-16 14:11:00,
2013-03-16 09:26:00,66.4,61.0,30.09,South,190,2.0,-999.0,82,-99.99,,,0.00,weatherlink.com 1.10,2013-03-16 14:26:00,
2013-03-16 09:41:00,68.5,61.0,30.09,SSW,209,0.0,-999.0,76,-99.99,,,0.00,weatherlink.com 1.10,2013-03-16 14:41:00,
2013-03-16 09:56:00,70.3,61.0,30.09,South,170,14.0,-999.0,72,-99.99,,,0.00,weatherlink.com 1.10,2013-03-16 14:56:00,
2013-03-16 10:11:00,71.4,60.0,30.09,SSW,205,3.0,-999.0,68,-99.99,,,0.00,weatherlink.com 1.10,2013-03-16 15:11:00,
2013-03-16 10:26:00,72.0,60.0,30.10,SSE,163,4.0,-999.0,67,-99.99,,,0.00,weatherlink.com 1.10,2013-03-16 15:26:00,
2013-03-16 10:42:00,73.0,61.0,30.10,South,184,0.0,-999.0,67,-99.99,,,0.00,weatherlink.com 1.10,2013-03-16 15:42:00,
2013-03-16 10:56:00,72.7,60.0,30.10,WSW,254,3.0,-999.0,64,-99.99,,,0.00,weatherlink.com 1.10,2013-03-16 15:56:00,
2013-03-16 11:11:00,73.9,60.0,30.10,SW,216,2.0,-999.0,63,-99.99,,,0.00,weatherlink.com 1.10,2013-03-16 16:11:00,
2013-03-16 11:27:00,75.4,60.0,30.09,SSW,192,3.0,-999.0,60,-99.99,,,0.00,weatherlink.com 1.10,2013-03-16 16:27:00,
2013-03-16 11:41:00,76.0,60.0,30.09,SSW,200,0.0,-999.0,58,-99.99,,,0.00,weatherlink.com 1.10,2013-03-16 16:41:00,
2013-03-16 11:57:00,76.9,59.0,30.09,WSW,237,4.0,-999.0,54,-99.99,,,0.00,weatherlink.com 1.10,2013-03-16 16:57:00,
2013-03-16 12:11:00,76.9,58.0,30.08,South,171,6.0,-999.0,53,-99.99,,,0.00,weatherlink.com 1.10,2013-03-16 17:11:00,
2013-03-16 12:26:00,76.9,58.0,30.08,SSE,167,0.0,-999.0,53,-99.99,,,0.00,weatherlink.com 1.10,2013-03-16 17:26:00,
2013-03-16 12:41:00,76.6,58.0,30.08,SSE,151,11.0,-999.0,53,-99.99,,,0.00,weatherlink.com 1.10,2013-03-16 17:41:00,
2013-03-16 12:56:00,77.6,58.0,30.07,South,171,4.0,-999.0,52,-99.99,,,0.00,weatherlink.com 1.10,2013-03-16 17:56:00,
2013-03-16 13:11:00,78.1,58.0,30.07,SSW,205,2.0,-999.0,51,-99.99,,,0.00,weatherlink.com 1.10,2013-03-16 18:11:00,
2013-03-16 13:26:00,78.6,57.0,30.06,SSW,205,3.0,-999.0,47,-99.99,,,0.00,weatherlink.com 1.10,2013-03-16 18:26:00,
2013-03-16 13:41:00,78.9,57.0,30.05,SSE,159,3.0,-999.0,47,-99.99,,,0.00,weatherlink.com 1.10,2013-03-16 18:41:00,
2013-03-16 13:56:00,78.8,58.0,30.04,South,176,7.0,-999.0,49,-99.99,,,0.00,weatherlink.com 1.10,2013-03-16 18:56:00,
2013-03-16 14:12:00,79.2,57.0,30.03,SSW,192,0.0,-999.0,46,-99.99,,,0.00,weatherlink.com 1.10,2013-03-16 19:12:00,
2013-03-16 14:27:00,79.2,55.0,30.02,South,188,2.0,-999.0,44,-99.99,,,0.00,weatherlink.com 1.10,2013-03-16 19:27:00,
2013-03-16 14:41:00,78.0,56.0,30.02,South,191,4.0,-999.0,46,-99.99,,,0.00,weatherlink.com 1.10,2013-03-16 19:41:00,
2013-03-16 14:56:00,78.2,56.0,30.01,SW,225,0.0,-999.0,47,-99.99,,,0.00,weatherlink.com 1.10,2013-03-16 19:56:00,
2013-03-16 15:11:00,78.0,57.0,30.00,South,177,0.0,-999.0,48,-99.99,,,0.00,weatherlink.com 1.10,2013-03-16 20:11:00,
2013-03-16 15:26:00,77.5,56.0,29.99,SSW,198,0.0,-999.0,48,-99.99,,,0.00,weatherlink.com 1.10,2013-03-16 20:26:00,
2013-03-16 15:41:00,77.4,56.0,29.98,South,188,0.0,-999.0,48,-99.99,,,0.00,weatherlink.com 1.10,2013-03-16 20:41:00,
2013-03-16 15:56:00,76.9,56.0,29.98,South,176,4.0,-999.0,49,-99.99,,,0.00,weatherlink.com 1.10,2013-03-16 20:56:00,
2013-03-16 16:11:00,76.9,57.0,29.98,South,178,1.0,-999.0,50,-99.99,,,0.00,weatherlink.com 1.10,2013-03-16 21:11:00,
2013-03-16 16:26:00,76.2,56.0,29.97,South,172,0.0,-999.0,50,-99.99,,,0.00,weatherlink.com 1.10,2013-03-16 21:26:00,
2013-03-16 16:41:00,75.6,57.0,29.97,South,173,6.0,-999.0,52,-99.99,,,0.00,weatherlink.com 1.10,2013-03-16 21:41:00,
2013-03-16 16:56:00,75.4,56.0,29.97,South,180,3.0,-999.0,52,-99.99,,,0.00,weatherlink.com 1.10,2013-03-16 21:56:00,
2013-03-16 17:11:00,74.5,56.0,29.97,SSE,157,7.0,-999.0,53,-99.99,,,0.00,weatherlink.com 1.10,2013-03-16 22:11:00,
2013-03-16 17:27:00,74.3,56.0,29.97,South,186,2.0,-999.0,53,-99.99,,,0.00,weatherlink.com 1.10,2013-03-16 22:27:00,
2013-03-16 17:42:00,73.4,57.0,29.97,SSE,152,0.0,-999.0,56,-99.99,,,0.00,weatherlink.com 1.10,2013-03-16 22:42:00,
2013-03-16 17:56:00,72.6,56.0,29.96,South,171,6.0,-999.0,57,-99.99,,,0.00,weatherlink.com 1.10,2013-03-16 22:56:00,
2013-03-16 18:12:00,71.6,56.0,29.96,South,191,3.0,-999.0,58,-99.99,,,0.00,weatherlink.com 1.10,2013-03-16 23:12:00,
2013-03-16 18:26:00,70.8,57.0,29.96,SE,146,4.0,-999.0,61,-99.99,,,0.00,weatherlink.com 1.10,2013-03-16 23:26:00,
2013-03-16 18:41:00,69.9,57.0,29.97,SSW,192,0.0,-999.0,64,-99.99,,,0.00,weatherlink.com 1.10,2013-03-16 23:41:00,
2013-03-16 18:56:00,69.0,57.0,29.97,SSE,162,2.0,-999.0,66,-99.99,,,0.00,weatherlink.com 1.10,2013-03-16 23:56:00,
2013-03-16 19:11:00,68.2,58.0,29.97,South,186,0.0,-999.0,69,-99.99,,,0.00,weatherlink.com 1.10,2013-03-17 00:11:00,
2013-03-16 19:26:00,67.3,58.0,29.97,South,169,0.0,-999.0,71,-99.99,,,0.00,weatherlink.com 1.10,2013-03-17 00:26:00,
2013-03-16 19:42:00,66.6,58.0,29.98,South,178,0.0,-999.0,73,-99.99,,,0.00,weatherlink.com 1.10,2013-03-17 00:42:00,
2013-03-16 19:56:00,65.9,58.0,29.98,South,188,0.0,-999.0,75,-99.99,,,0.00,weatherlink.com 1.10,2013-03-17 00:56:00,
2013-03-16 20:11:00,65.4,58.0,29.98,South,182,0.0,-999.0,76,-99.99,,,0.00,weatherlink.com 1.10,2013-03-17 01:11:00,
2013-03-16 20:41:00,64.5,58.0,29.99,South,185,0.0,-999.0,78,-99.99,,,0.00,weatherlink.com 1.10,2013-03-17 01:41:00,
2013-03-16 20:56:00,64.3,58.0,29.99,South,175,0.0,-999.0,79,-99.99,,,0.00,weatherlink.com 1.10,2013-03-17 01:56:00,
2013-03-16 21:11:00,64.1,58.0,29.99,South,171,0.0,-999.0,80,-99.99,,,0.00,weatherlink.com 1.10,2013-03-17 02:11:00,
2013-03-16 21:26:00,63.8,58.0,30.00,South,171,0.0,-999.0,81,-99.99,,,0.00,weatherlink.com 1.10,2013-03-17 02:26:00,
2013-03-16 21:41:00,63.4,58.0,30.00,South,171,0.0,-999.0,82,-99.99,,,0.00,weatherlink.com 1.10,2013-03-17 02:41:00,
2013-03-16 21:56:00,62.9,58.0,30.00,South,172,0.0,-999.0,83,-99.99,,,0.00,weatherlink.com 1.10,2013-03-17 02:56:00,
2013-03-16 22:11:00,62.6,58.0,30.00,South,173,1.0,-999.0,84,-99.99,,,0.00,weatherlink.com 1.10,2013-03-17 03:11:00,
2013-03-16 22:26:00,62.2,58.0,30.00,South,173,0.0,-999.0,85,-99.99,,,0.00,weatherlink.com 1.10,2013-03-17 03:26:00,
2013-03-16 22:42:00,61.8,58.0,30.00,South,175,0.0,-999.0,86,-99.99,,,0.00,weatherlink.com 1.10,2013-03-17 03:42:00,
2013-03-16 22:56:00,61.6,58.0,30.00,South,175,0.0,-999.0,88,-99.99,,,0.00,weatherlink.com 1.10,2013-03-17 03:56:00,
2013-03-16 23:11:00,61.2,58.0,30.00,South,175,0.0,-999.0,88,-99.99,,,0.00,weatherlink.com 1.10,2013-03-17 04:11:00,
2013-03-16 23:26:00,60.8,57.0,29.99,South,174,0.0,-999.0,88,-99.99,,,0.00,weatherlink.com 1.10,2013-03-17 04:26:00,
2013-03-16 23:41:00,60.4,57.0,29.98,South,173,0.0,-999.0,89,-99.99,,,0.00,weatherlink.com 1.10,2013-03-17 04:41:00,
2013-03-16 23:56:00,60.5,58.0,29.98,South,174,0.0,-999.0,90,-99.99,,,0.00,weatherlink.com 1.10,2013-03-17 04:56:00,